sensor_id;sensor_type;location;lat;lon;timestamp;P1;durP1;ratioP1;P2;durP2;ratioP2
16828;SDS011;8531;48.078;11.968;2022-09-27T00:02:07;1.55;;;1.38;;
16828;SDS011;8531;48.078;11.968;2022-09-27T00:04:33;1.40;;;1.30;;
16828;SDS011;8531;48.078;11.968;2022-09-27T00:06:59;2.38;;;1.75;;
16828;SDS011;8531;48.078;11.968;2022-09-27T00:09:24;3.05;;;1.80;;
16828;SDS011;8531;48.078;11.968;2022-09-27T00:11:50;2.03;;;1.75;;
16828;SDS011;8531;48.078;11.968;2022-09-27T00:14:16;1.67;;;1.20;;
16828;SDS011;8531;48.078;11.968;2022-09-27T00:16:42;1.35;;;1.13;;
16828;SDS011;8531;48.078;11.968;2022-09-27T00:19:13;1.48;;;1.38;;
16828;SDS011;8531;48.078;11.968;2022-09-27T00:21:44;5.90;;;1.50;;
16828;SDS011;8531;48.078;11.968;2022-09-27T00:24:18;1.75;;;1.33;;
16828;SDS011;8531;48.078;11.968;2022-09-27T00:26:44;2.13;;;1.50;;
16828;SDS011;8531;48.078;11.968;2022-09-27T00:29:11;1.00;;;0.93;;
16828;SDS011;8531;48.078;11.968;2022-09-27T00:31:37;1.98;;;1.23;;
16828;SDS011;8531;48.078;11.968;2022-09-27T00:34:04;2.17;;;1.48;;
16828;SDS011;8531;48.078;11.968;2022-09-27T00:36:31;2.08;;;1.42;;
16828;SDS011;8531;48.078;11.968;2022-09-27T00:38:58;1.58;;;1.10;;
16828;SDS011;8531;48.078;11.968;2022-09-27T00:41:26;2.28;;;1.38;;
16828;SDS011;8531;48.078;11.968;2022-09-27T00:44:00;2.72;;;1.38;;
16828;SDS011;8531;48.078;11.968;2022-09-27T00:46:56;2.63;;;1.23;;
16828;SDS011;8531;48.078;11.968;2022-09-27T00:52:16;2.38;;;1.10;;
16828;SDS011;8531;48.078;11.968;2022-09-27T00:54:49;1.73;;;1.40;;
16828;SDS011;8531;48.078;11.968;2022-09-27T00:57:18;1.67;;;1.30;;
16828;SDS011;8531;48.078;11.968;2022-09-27T00:59:48;1.83;;;1.17;;
16828;SDS011;8531;48.078;11.968;2022-09-27T01:02:34;1.10;;;0.98;;
16828;SDS011;8531;48.078;11.968;2022-09-27T01:05:03;1.60;;;1.40;;
16828;SDS011;8531;48.078;11.968;2022-09-27T01:07:30;1.30;;;1.15;;
16828;SDS011;8531;48.078;11.968;2022-09-27T01:09:56;1.73;;;1.20;;
16828;SDS011;8531;48.078;11.968;2022-09-27T01:18:14;1.40;;;1.20;;
16828;SDS011;8531;48.078;11.968;2022-09-27T01:21:03;1.73;;;1.15;;
16828;SDS011;8531;48.078;11.968;2022-09-27T01:31:49;1.27;;;1.17;;
16828;SDS011;8531;48.078;11.968;2022-09-27T01:34:42;2.63;;;1.73;;
16828;SDS011;8531;48.078;11.968;2022-09-27T01:40:11;2.67;;;2.10;;
16828;SDS011;8531;48.078;11.968;2022-09-27T01:42:46;3.10;;;2.03;;
16828;SDS011;8531;48.078;11.968;2022-09-27T01:45:34;2.30;;;1.95;;
16828;SDS011;8531;48.078;11.968;2022-09-27T01:48:06;3.83;;;2.70;;
16828;SDS011;8531;48.078;11.968;2022-09-27T01:53:43;3.10;;;2.10;;
16828;SDS011;8531;48.078;11.968;2022-09-27T01:56:13;1.55;;;1.45;;
16828;SDS011;8531;48.078;11.968;2022-09-27T01:59:04;3.20;;;2.10;;
16828;SDS011;8531;48.078;11.968;2022-09-27T02:01:52;2.72;;;1.88;;
16828;SDS011;8531;48.078;11.968;2022-09-27T02:04:24;2.30;;;1.70;;
16828;SDS011;8531;48.078;11.968;2022-09-27T02:06:59;1.60;;;1.50;;
16828;SDS011;8531;48.078;11.968;2022-09-27T02:10:15;2.60;;;1.77;;
16828;SDS011;8531;48.078;11.968;2022-09-27T02:12:27;2.97;;;2.30;;
16828;SDS011;8531;48.078;11.968;2022-09-27T02:15:04;2.35;;;2.13;;
16828;SDS011;8531;48.078;11.968;2022-09-27T02:20:30;3.90;;;2.22;;
16828;SDS011;8531;48.078;11.968;2022-09-27T02:25:44;3.35;;;1.80;;
16828;SDS011;8531;48.078;11.968;2022-09-27T02:28:31;2.90;;;1.50;;
16828;SDS011;8531;48.078;11.968;2022-09-27T02:31:03;2.30;;;1.50;;
16828;SDS011;8531;48.078;11.968;2022-09-27T02:33:30;2.33;;;1.30;;
16828;SDS011;8531;48.078;11.968;2022-09-27T02:36:01;3.10;;;1.42;;
16828;SDS011;8531;48.078;11.968;2022-09-27T02:38:27;4.13;;;1.95;;
16828;SDS011;8531;48.078;11.968;2022-09-27T02:40:53;1.58;;;1.48;;
16828;SDS011;8531;48.078;11.968;2022-09-27T02:43:19;2.70;;;1.77;;
16828;SDS011;8531;48.078;11.968;2022-09-27T02:46:01;3.47;;;1.50;;
16828;SDS011;8531;48.078;11.968;2022-09-27T02:48:38;1.55;;;1.45;;
16828;SDS011;8531;48.078;11.968;2022-09-27T02:51:28;2.03;;;1.67;;
16828;SDS011;8531;48.078;11.968;2022-09-27T02:59:52;3.53;;;1.25;;
16828;SDS011;8531;48.078;11.968;2022-09-27T03:04:50;2.30;;;1.50;;
16828;SDS011;8531;48.078;11.968;2022-09-27T03:07:21;1.60;;;1.15;;
16828;SDS011;8531;48.078;11.968;2022-09-27T03:09:48;1.38;;;1.08;;
16828;SDS011;8531;48.078;11.968;2022-09-27T03:12:17;1.13;;;1.02;;
16828;SDS011;8531;48.078;11.968;2022-09-27T03:14:50;1.40;;;1.30;;
16828;SDS011;8531;48.078;11.968;2022-09-27T03:17:17;3.47;;;1.50;;
16828;SDS011;8531;48.078;11.968;2022-09-27T03:19:42;1.40;;;1.00;;
16828;SDS011;8531;48.078;11.968;2022-09-27T03:22:08;3.33;;;1.40;;
16828;SDS011;8531;48.078;11.968;2022-09-27T03:24:34;1.30;;;1.13;;
16828;SDS011;8531;48.078;11.968;2022-09-27T03:26:59;2.53;;;1.58;;
16828;SDS011;8531;48.078;11.968;2022-09-27T03:29:25;2.42;;;1.50;;
16828;SDS011;8531;48.078;11.968;2022-09-27T03:31:51;4.93;;;2.92;;
16828;SDS011;8531;48.078;11.968;2022-09-27T03:34:17;5.15;;;2.47;;
16828;SDS011;8531;48.078;11.968;2022-09-27T03:36:43;5.82;;;2.53;;
16828;SDS011;8531;48.078;11.968;2022-09-27T03:39:09;4.95;;;2.40;;
16828;SDS011;8531;48.078;11.968;2022-09-27T03:41:35;5.20;;;3.33;;
16828;SDS011;8531;48.078;11.968;2022-09-27T03:44:00;5.03;;;2.88;;
16828;SDS011;8531;48.078;11.968;2022-09-27T03:46:26;4.25;;;3.08;;
16828;SDS011;8531;48.078;11.968;2022-09-27T03:48:52;6.40;;;3.40;;
16828;SDS011;8531;48.078;11.968;2022-09-27T03:51:17;2.05;;;1.38;;
16828;SDS011;8531;48.078;11.968;2022-09-27T03:53:43;1.65;;;1.52;;
16828;SDS011;8531;48.078;11.968;2022-09-27T03:56:09;2.50;;;1.83;;
16828;SDS011;8531;48.078;11.968;2022-09-27T03:58:34;2.03;;;1.63;;
16828;SDS011;8531;48.078;11.968;2022-09-27T04:01:00;1.50;;;1.40;;
16828;SDS011;8531;48.078;11.968;2022-09-27T04:03:26;2.30;;;1.40;;
16828;SDS011;8531;48.078;11.968;2022-09-27T04:05:54;2.10;;;1.55;;
16828;SDS011;8531;48.078;11.968;2022-09-27T04:08:20;1.58;;;1.40;;
16828;SDS011;8531;48.078;11.968;2022-09-27T04:10:48;3.05;;;2.08;;
16828;SDS011;8531;48.078;11.968;2022-09-27T04:13:14;1.98;;;1.20;;
16828;SDS011;8531;48.078;11.968;2022-09-27T04:15:41;2.00;;;1.48;;
16828;SDS011;8531;48.078;11.968;2022-09-27T04:18:07;2.05;;;1.30;;
16828;SDS011;8531;48.078;11.968;2022-09-27T04:20:33;2.95;;;1.70;;
16828;SDS011;8531;48.078;11.968;2022-09-27T04:23:00;2.20;;;1.60;;
16828;SDS011;8531;48.078;11.968;2022-09-27T04:25:25;1.90;;;1.65;;
16828;SDS011;8531;48.078;11.968;2022-09-27T04:27:51;2.63;;;2.03;;
16828;SDS011;8531;48.078;11.968;2022-09-27T04:30:18;1.83;;;1.48;;
16828;SDS011;8531;48.078;11.968;2022-09-27T04:32:45;1.52;;;1.40;;
16828;SDS011;8531;48.078;11.968;2022-09-27T04:35:11;1.95;;;1.60;;
16828;SDS011;8531;48.078;11.968;2022-09-27T04:37:57;3.40;;;2.03;;
16828;SDS011;8531;48.078;11.968;2022-09-27T04:40:23;2.08;;;1.75;;
16828;SDS011;8531;48.078;11.968;2022-09-27T04:42:49;5.03;;;2.63;;
16828;SDS011;8531;48.078;11.968;2022-09-27T04:45:15;1.73;;;1.40;;
16828;SDS011;8531;48.078;11.968;2022-09-27T04:47:45;2.85;;;2.13;;
16828;SDS011;8531;48.078;11.968;2022-09-27T04:50:12;6.38;;;3.10;;
16828;SDS011;8531;48.078;11.968;2022-09-27T04:52:38;3.80;;;1.70;;
16828;SDS011;8531;48.078;11.968;2022-09-27T04:55:05;1.50;;;1.40;;
16828;SDS011;8531;48.078;11.968;2022-09-27T04:57:32;3.53;;;1.80;;
16828;SDS011;8531;48.078;11.968;2022-09-27T04:59:58;1.90;;;1.55;;
16828;SDS011;8531;48.078;11.968;2022-09-27T05:02:27;3.03;;;1.80;;
16828;SDS011;8531;48.078;11.968;2022-09-27T05:04:54;5.40;;;4.75;;
16828;SDS011;8531;48.078;11.968;2022-09-27T05:07:24;3.35;;;1.83;;
16828;SDS011;8531;48.078;11.968;2022-09-27T05:09:51;5.55;;;3.60;;
16828;SDS011;8531;48.078;11.968;2022-09-27T05:12:17;4.07;;;2.22;;
16828;SDS011;8531;48.078;11.968;2022-09-27T05:14:44;2.85;;;2.03;;
16828;SDS011;8531;48.078;11.968;2022-09-27T05:17:09;3.63;;;2.33;;
16828;SDS011;8531;48.078;11.968;2022-09-27T05:19:36;3.15;;;2.47;;
16828;SDS011;8531;48.078;11.968;2022-09-27T05:22:03;6.20;;;3.20;;
16828;SDS011;8531;48.078;11.968;2022-09-27T05:24:30;4.60;;;2.28;;
16828;SDS011;8531;48.078;11.968;2022-09-27T05:26:57;3.03;;;1.95;;
16828;SDS011;8531;48.078;11.968;2022-09-27T05:29:24;3.67;;;2.80;;
16828;SDS011;8531;48.078;11.968;2022-09-27T05:31:49;5.57;;;4.13;;
16828;SDS011;8531;48.078;11.968;2022-09-27T05:34:15;4.13;;;1.90;;
16828;SDS011;8531;48.078;11.968;2022-09-27T05:36:42;4.22;;;2.60;;
16828;SDS011;8531;48.078;11.968;2022-09-27T05:39:07;4.60;;;2.90;;
16828;SDS011;8531;48.078;11.968;2022-09-27T05:41:33;6.93;;;2.85;;
16828;SDS011;8531;48.078;11.968;2022-09-27T05:43:59;3.65;;;2.50;;
16828;SDS011;8531;48.078;11.968;2022-09-27T05:46:25;4.55;;;2.30;;
16828;SDS011;8531;48.078;11.968;2022-09-27T05:48:50;4.55;;;2.85;;
16828;SDS011;8531;48.078;11.968;2022-09-27T05:51:16;3.25;;;2.60;;
16828;SDS011;8531;48.078;11.968;2022-09-27T05:53:43;4.38;;;1.88;;
16828;SDS011;8531;48.078;11.968;2022-09-27T05:56:08;7.88;;;5.13;;
16828;SDS011;8531;48.078;11.968;2022-09-27T05:58:34;4.35;;;3.95;;
16828;SDS011;8531;48.078;11.968;2022-09-27T06:01:00;3.13;;;2.28;;
16828;SDS011;8531;48.078;11.968;2022-09-27T06:03:25;1.83;;;1.42;;
16828;SDS011;8531;48.078;11.968;2022-09-27T06:05:51;1.20;;;1.05;;
16828;SDS011;8531;48.078;11.968;2022-09-27T06:08:17;2.08;;;1.23;;
16828;SDS011;8531;48.078;11.968;2022-09-27T06:10:44;3.28;;;0.90;;
16828;SDS011;8531;48.078;11.968;2022-09-27T06:13:12;2.65;;;1.27;;
16828;SDS011;8531;48.078;11.968;2022-09-27T06:15:40;1.15;;;1.00;;
16828;SDS011;8531;48.078;11.968;2022-09-27T06:18:09;2.13;;;1.23;;
16828;SDS011;8531;48.078;11.968;2022-09-27T06:20:37;1.05;;;0.90;;
16828;SDS011;8531;48.078;11.968;2022-09-27T06:23:07;0.82;;;0.80;;
16828;SDS011;8531;48.078;11.968;2022-09-27T06:25:38;1.55;;;0.75;;
16828;SDS011;8531;48.078;11.968;2022-09-27T06:28:04;0.70;;;0.40;;
16828;SDS011;8531;48.078;11.968;2022-09-27T06:30:30;2.28;;;0.80;;
16828;SDS011;8531;48.078;11.968;2022-09-27T06:32:56;0.70;;;0.55;;
16828;SDS011;8531;48.078;11.968;2022-09-27T06:35:23;2.33;;;0.90;;
16828;SDS011;8531;48.078;11.968;2022-09-27T06:37:50;1.00;;;0.60;;
16828;SDS011;8531;48.078;11.968;2022-09-27T06:40:16;2.40;;;0.63;;
16828;SDS011;8531;48.078;11.968;2022-09-27T06:42:42;0.70;;;0.50;;
16828;SDS011;8531;48.078;11.968;2022-09-27T06:45:08;2.15;;;0.65;;
16828;SDS011;8531;48.078;11.968;2022-09-27T06:47:35;1.23;;;0.57;;
16828;SDS011;8531;48.078;11.968;2022-09-27T06:50:01;1.13;;;0.68;;
16828;SDS011;8531;48.078;11.968;2022-09-27T06:52:30;1.95;;;0.68;;
16828;SDS011;8531;48.078;11.968;2022-09-27T06:54:59;1.30;;;0.60;;
16828;SDS011;8531;48.078;11.968;2022-09-27T06:57:26;0.80;;;0.75;;
16828;SDS011;8531;48.078;11.968;2022-09-27T07:00:10;1.10;;;0.40;;
16828;SDS011;8531;48.078;11.968;2022-09-27T07:02:50;0.38;;;0.30;;
16828;SDS011;8531;48.078;11.968;2022-09-27T07:05:17;2.08;;;0.75;;
16828;SDS011;8531;48.078;11.968;2022-09-27T07:07:44;1.55;;;0.70;;
16828;SDS011;8531;48.078;11.968;2022-09-27T07:10:12;1.77;;;0.80;;
16828;SDS011;8531;48.078;11.968;2022-09-27T07:12:38;0.90;;;0.43;;
16828;SDS011;8531;48.078;11.968;2022-09-27T07:15:04;1.20;;;0.28;;
16828;SDS011;8531;48.078;11.968;2022-09-27T07:17:31;0.30;;;0.20;;
16828;SDS011;8531;48.078;11.968;2022-09-27T07:19:56;1.23;;;0.50;;
16828;SDS011;8531;48.078;11.968;2022-09-27T07:22:22;1.65;;;0.60;;
16828;SDS011;8531;48.078;11.968;2022-09-27T07:24:48;5.95;;;4.45;;
16828;SDS011;8531;48.078;11.968;2022-09-27T07:27:14;1.58;;;0.57;;
16828;SDS011;8531;48.078;11.968;2022-09-27T07:29:40;0.88;;;0.28;;
16828;SDS011;8531;48.078;11.968;2022-09-27T07:32:06;0.75;;;0.47;;
16828;SDS011;8531;48.078;11.968;2022-09-27T07:34:32;0.73;;;0.30;;
16828;SDS011;8531;48.078;11.968;2022-09-27T07:36:58;3.17;;;0.47;;
16828;SDS011;8531;48.078;11.968;2022-09-27T07:39:24;0.60;;;0.30;;
16828;SDS011;8531;48.078;11.968;2022-09-27T07:41:50;0.52;;;0.35;;
16828;SDS011;8531;48.078;11.968;2022-09-27T07:44:17;1.48;;;0.30;;
16828;SDS011;8531;48.078;11.968;2022-09-27T07:46:43;1.33;;;0.52;;
16828;SDS011;8531;48.078;11.968;2022-09-27T07:49:08;1.77;;;0.40;;
16828;SDS011;8531;48.078;11.968;2022-09-27T07:51:34;1.25;;;0.50;;
16828;SDS011;8531;48.078;11.968;2022-09-27T07:54:00;2.50;;;0.57;;
16828;SDS011;8531;48.078;11.968;2022-09-27T07:56:27;1.30;;;0.55;;
16828;SDS011;8531;48.078;11.968;2022-09-27T07:58:53;2.03;;;0.70;;
16828;SDS011;8531;48.078;11.968;2022-09-27T08:01:19;2.42;;;0.80;;
16828;SDS011;8531;48.078;11.968;2022-09-27T08:03:45;1.13;;;0.50;;
16828;SDS011;8531;48.078;11.968;2022-09-27T08:06:11;1.10;;;0.50;;
16828;SDS011;8531;48.078;11.968;2022-09-27T08:08:37;4.65;;;0.80;;
16828;SDS011;8531;48.078;11.968;2022-09-27T08:11:13;3.80;;;0.80;;
16828;SDS011;8531;48.078;11.968;2022-09-27T08:13:42;2.70;;;0.80;;
16828;SDS011;8531;48.078;11.968;2022-09-27T08:16:08;2.05;;;0.40;;
16828;SDS011;8531;48.078;11.968;2022-09-27T08:18:35;1.63;;;0.77;;
16828;SDS011;8531;48.078;11.968;2022-09-27T08:21:02;2.22;;;0.55;;
16828;SDS011;8531;48.078;11.968;2022-09-27T08:23:30;0.65;;;0.30;;
16828;SDS011;8531;48.078;11.968;2022-09-27T08:25:55;6.68;;;0.70;;
16828;SDS011;8531;48.078;11.968;2022-09-27T08:28:23;8.40;;;1.52;;
16828;SDS011;8531;48.078;11.968;2022-09-27T08:30:50;1.27;;;0.20;;
16828;SDS011;8531;48.078;11.968;2022-09-27T08:33:15;1.65;;;0.30;;
16828;SDS011;8531;48.078;11.968;2022-09-27T08:35:41;0.98;;;0.40;;
16828;SDS011;8531;48.078;11.968;2022-09-27T08:38:08;1.63;;;0.50;;
16828;SDS011;8531;48.078;11.968;2022-09-27T08:49:02;0.63;;;0.20;;
16828;SDS011;8531;48.078;11.968;2022-09-27T08:51:34;0.50;;;0.20;;
16828;SDS011;8531;48.078;11.968;2022-09-27T08:54:03;1.23;;;0.20;;
16828;SDS011;8531;48.078;11.968;2022-09-27T08:56:35;0.28;;;0.10;;
16828;SDS011;8531;48.078;11.968;2022-09-27T09:01:39;1.75;;;0.28;;
16828;SDS011;8531;48.078;11.968;2022-09-27T09:04:07;0.45;;;0.08;;
16828;SDS011;8531;48.078;11.968;2022-09-27T09:23:40;0.20;;;0.13;;
16828;SDS011;8531;48.078;11.968;2022-09-27T09:26:26;1.63;;;0.50;;
16828;SDS011;8531;48.078;11.968;2022-09-27T09:31:39;1.50;;;0.50;;
16828;SDS011;8531;48.078;11.968;2022-09-27T09:34:21;1.05;;;0.30;;
16828;SDS011;8531;48.078;11.968;2022-09-27T09:39:44;0.63;;;0.10;;
16828;SDS011;8531;48.078;11.968;2022-09-27T09:47:12;2.28;;;0.40;;
16828;SDS011;8531;48.078;11.968;2022-09-27T09:49:52;1.08;;;0.20;;
16828;SDS011;8531;48.078;11.968;2022-09-27T09:52:23;1.02;;;0.30;;
16828;SDS011;8531;48.078;11.968;2022-09-27T09:54:59;0.10;;;0.00;;
16828;SDS011;8531;48.078;11.968;2022-09-27T09:57:35;1.88;;;1.45;;
16828;SDS011;8531;48.078;11.968;2022-09-27T10:00:14;1.55;;;0.43;;
16828;SDS011;8531;48.078;11.968;2022-09-27T10:02:42;0.55;;;0.10;;
16828;SDS011;8531;48.078;11.968;2022-09-27T10:05:13;0.25;;;0.20;;
16828;SDS011;8531;48.078;11.968;2022-09-27T10:07:42;0.40;;;0.22;;
16828;SDS011;8531;48.078;11.968;2022-09-27T10:10:10;0.95;;;0.20;;
16828;SDS011;8531;48.078;11.968;2022-09-27T10:12:40;0.20;;;0.20;;
16828;SDS011;8531;48.078;11.968;2022-09-27T10:15:11;0.10;;;0.10;;
16828;SDS011;8531;48.078;11.968;2022-09-27T10:17:41;5.28;;;0.43;;
16828;SDS011;8531;48.078;11.968;2022-09-27T10:20:36;5.13;;;0.32;;
16828;SDS011;8531;48.078;11.968;2022-09-27T10:23:10;1.17;;;0.15;;
16828;SDS011;8531;48.078;11.968;2022-09-27T10:31:08;0.68;;;0.30;;
16828;SDS011;8531;48.078;11.968;2022-09-27T10:33:36;0.47;;;0.30;;
16828;SDS011;8531;48.078;11.968;2022-09-27T10:36:06;0.70;;;0.25;;
16828;SDS011;8531;48.078;11.968;2022-09-27T10:38:53;0.47;;;0.00;;
16828;SDS011;8531;48.078;11.968;2022-09-27T10:43:55;0.60;;;0.20;;
16828;SDS011;8531;48.078;11.968;2022-09-27T10:46:25;0.25;;;0.10;;
16828;SDS011;8531;48.078;11.968;2022-09-27T10:51:54;1.00;;;0.50;;
16828;SDS011;8531;48.078;11.968;2022-09-27T10:54:33;0.32;;;0.20;;
16828;SDS011;8531;48.078;11.968;2022-09-27T10:57:01;1.00;;;0.20;;
16828;SDS011;8531;48.078;11.968;2022-09-27T10:59:30;1.30;;;0.20;;
16828;SDS011;8531;48.078;11.968;2022-09-27T11:02:04;0.55;;;0.13;;
16828;SDS011;8531;48.078;11.968;2022-09-27T11:04:43;0.35;;;0.20;;
16828;SDS011;8531;48.078;11.968;2022-09-27T11:07:29;1.35;;;0.30;;
16828;SDS011;8531;48.078;11.968;2022-09-27T11:09:55;0.50;;;0.30;;
16828;SDS011;8531;48.078;11.968;2022-09-27T11:12:27;1.35;;;0.30;;
16828;SDS011;8531;48.078;11.968;2022-09-27T11:15:00;0.52;;;0.30;;
16828;SDS011;8531;48.078;11.968;2022-09-27T11:17:46;0.52;;;0.20;;
16828;SDS011;8531;48.078;11.968;2022-09-27T11:20:33;0.75;;;0.40;;
16828;SDS011;8531;48.078;11.968;2022-09-27T11:29:21;2.22;;;0.50;;
16828;SDS011;8531;48.078;11.968;2022-09-27T11:32:01;0.57;;;0.25;;
16828;SDS011;8531;48.078;11.968;2022-09-27T11:46:35;0.28;;;0.20;;
16828;SDS011;8531;48.078;11.968;2022-09-27T11:57:31;1.30;;;0.30;;
16828;SDS011;8531;48.078;11.968;2022-09-27T12:13:56;0.77;;;0.35;;
16828;SDS011;8531;48.078;11.968;2022-09-27T12:16:29;3.22;;;0.30;;
16828;SDS011;8531;48.078;11.968;2022-09-27T12:18:56;0.32;;;0.20;;
16828;SDS011;8531;48.078;11.968;2022-09-27T12:21:25;0.20;;;0.20;;
16828;SDS011;8531;48.078;11.968;2022-09-27T12:23:54;0.98;;;0.32;;
16828;SDS011;8531;48.078;11.968;2022-09-27T12:26:25;1.27;;;0.17;;
16828;SDS011;8531;48.078;11.968;2022-09-27T12:29:01;2.85;;;0.20;;
16828;SDS011;8531;48.078;11.968;2022-09-27T12:37:37;0.90;;;0.10;;
16828;SDS011;8531;48.078;11.968;2022-09-27T12:42:56;2.10;;;0.15;;
16828;SDS011;8531;48.078;11.968;2022-09-27T13:13:18;2.22;;;0.25;;
16828;SDS011;8531;48.078;11.968;2022-09-27T13:15:47;0.98;;;0.50;;
16828;SDS011;8531;48.078;11.968;2022-09-27T13:18:56;1.77;;;0.47;;
16828;SDS011;8531;48.078;11.968;2022-09-27T13:32:32;0.65;;;0.30;;
16828;SDS011;8531;48.078;11.968;2022-09-27T13:37:54;1.95;;;0.70;;
16828;SDS011;8531;48.078;11.968;2022-09-27T13:45:48;1.63;;;0.43;;
16828;SDS011;8531;48.078;11.968;2022-09-27T13:51:19;2.83;;;0.50;;
16828;SDS011;8531;48.078;11.968;2022-09-27T13:57:37;1.63;;;0.50;;
16828;SDS011;8531;48.078;11.968;2022-09-27T14:03:03;2.42;;;0.85;;
16828;SDS011;8531;48.078;11.968;2022-09-27T14:05:42;2.80;;;0.80;;
16828;SDS011;8531;48.078;11.968;2022-09-27T14:08:26;2.05;;;0.50;;
16828;SDS011;8531;48.078;11.968;2022-09-27T14:11:38;1.77;;;0.98;;
16828;SDS011;8531;48.078;11.968;2022-09-27T14:14:11;0.75;;;0.50;;
16828;SDS011;8531;48.078;11.968;2022-09-27T14:16:42;2.28;;;0.90;;
16828;SDS011;8531;48.078;11.968;2022-09-27T14:19:12;3.80;;;0.43;;
16828;SDS011;8531;48.078;11.968;2022-09-27T14:21:41;4.30;;;0.90;;
16828;SDS011;8531;48.078;11.968;2022-09-27T14:27:09;1.83;;;1.42;;
16828;SDS011;8531;48.078;11.968;2022-09-27T14:29:46;0.88;;;0.40;;
16828;SDS011;8531;48.078;11.968;2022-09-27T14:32:29;0.90;;;0.45;;
16828;SDS011;8531;48.078;11.968;2022-09-27T14:35:09;0.55;;;0.40;;
16828;SDS011;8531;48.078;11.968;2022-09-27T14:38:00;2.88;;;0.75;;
16828;SDS011;8531;48.078;11.968;2022-09-27T14:40:34;0.63;;;0.35;;
16828;SDS011;8531;48.078;11.968;2022-09-27T14:43:04;2.95;;;0.55;;
16828;SDS011;8531;48.078;11.968;2022-09-27T14:45:37;0.63;;;0.32;;
16828;SDS011;8531;48.078;11.968;2022-09-27T14:50:52;1.40;;;0.50;;
16828;SDS011;8531;48.078;11.968;2022-09-27T14:53:25;2.17;;;1.20;;
16828;SDS011;8531;48.078;11.968;2022-09-27T14:55:53;0.93;;;0.80;;
16828;SDS011;8531;48.078;11.968;2022-09-27T14:58:19;0.70;;;0.40;;
16828;SDS011;8531;48.078;11.968;2022-09-27T15:00:55;0.98;;;0.35;;
16828;SDS011;8531;48.078;11.968;2022-09-27T15:03:29;1.10;;;0.20;;
16828;SDS011;8531;48.078;11.968;2022-09-27T15:05:56;0.75;;;0.30;;
16828;SDS011;8531;48.078;11.968;2022-09-27T15:08:26;1.55;;;0.20;;
16828;SDS011;8531;48.078;11.968;2022-09-27T15:11:00;0.80;;;0.20;;
16828;SDS011;8531;48.078;11.968;2022-09-27T15:13:31;0.70;;;0.32;;
16828;SDS011;8531;48.078;11.968;2022-09-27T15:15:58;0.65;;;0.20;;
16828;SDS011;8531;48.078;11.968;2022-09-27T15:20:56;0.35;;;0.17;;
16828;SDS011;8531;48.078;11.968;2022-09-27T15:23:26;0.88;;;0.28;;
16828;SDS011;8531;48.078;11.968;2022-09-27T15:28:41;0.57;;;0.25;;
16828;SDS011;8531;48.078;11.968;2022-09-27T15:31:09;0.98;;;0.22;;
16828;SDS011;8531;48.078;11.968;2022-09-27T15:33:35;2.15;;;0.28;;
16828;SDS011;8531;48.078;11.968;2022-09-27T15:36:03;0.22;;;0.10;;
16828;SDS011;8531;48.078;11.968;2022-09-27T15:41:15;3.95;;;0.60;;
16828;SDS011;8531;48.078;11.968;2022-09-27T15:43:47;1.70;;;0.40;;
16828;SDS011;8531;48.078;11.968;2022-09-27T15:49:13;1.23;;;0.70;;
16828;SDS011;8531;48.078;11.968;2022-09-27T15:51:38;1.38;;;0.38;;
16828;SDS011;8531;48.078;11.968;2022-09-27T15:54:06;0.95;;;0.40;;
16828;SDS011;8531;48.078;11.968;2022-09-27T15:56:31;0.60;;;0.30;;
16828;SDS011;8531;48.078;11.968;2022-09-27T15:58:59;1.77;;;0.50;;
16828;SDS011;8531;48.078;11.968;2022-09-27T16:01:25;0.77;;;0.40;;
16828;SDS011;8531;48.078;11.968;2022-09-27T16:03:50;0.32;;;0.20;;
16828;SDS011;8531;48.078;11.968;2022-09-27T16:06:16;0.40;;;0.30;;
16828;SDS011;8531;48.078;11.968;2022-09-27T16:08:43;0.65;;;0.38;;
16828;SDS011;8531;48.078;11.968;2022-09-27T16:11:11;0.30;;;0.30;;
16828;SDS011;8531;48.078;11.968;2022-09-27T16:13:38;0.52;;;0.30;;
16828;SDS011;8531;48.078;11.968;2022-09-27T16:16:04;0.88;;;0.40;;
16828;SDS011;8531;48.078;11.968;2022-09-27T16:18:30;0.80;;;0.38;;
16828;SDS011;8531;48.078;11.968;2022-09-27T16:20:58;0.77;;;0.38;;
16828;SDS011;8531;48.078;11.968;2022-09-27T16:23:23;1.55;;;0.57;;
16828;SDS011;8531;48.078;11.968;2022-09-27T16:25:51;0.80;;;0.40;;
16828;SDS011;8531;48.078;11.968;2022-09-27T16:28:17;1.33;;;0.50;;
16828;SDS011;8531;48.078;11.968;2022-09-27T16:30:43;1.80;;;0.93;;
16828;SDS011;8531;48.078;11.968;2022-09-27T16:33:09;1.35;;;0.60;;
16828;SDS011;8531;48.078;11.968;2022-09-27T16:35:37;1.25;;;0.82;;
16828;SDS011;8531;48.078;11.968;2022-09-27T16:38:05;3.17;;;0.52;;
16828;SDS011;8531;48.078;11.968;2022-09-27T16:40:31;1.33;;;0.55;;
16828;SDS011;8531;48.078;11.968;2022-09-27T16:42:57;1.55;;;1.00;;
16828;SDS011;8531;48.078;11.968;2022-09-27T16:45:22;0.70;;;0.50;;
16828;SDS011;8531;48.078;11.968;2022-09-27T16:47:57;0.82;;;0.40;;
16828;SDS011;8531;48.078;11.968;2022-09-27T16:50:23;1.45;;;0.55;;
16828;SDS011;8531;48.078;11.968;2022-09-27T16:53:08;1.40;;;0.45;;
16828;SDS011;8531;48.078;11.968;2022-09-27T16:55:34;1.33;;;0.85;;
16828;SDS011;8531;48.078;11.968;2022-09-27T16:58:00;1.75;;;0.63;;
16828;SDS011;8531;48.078;11.968;2022-09-27T17:00:29;0.50;;;0.30;;
16828;SDS011;8531;48.078;11.968;2022-09-27T17:02:57;2.33;;;0.50;;
16828;SDS011;8531;48.078;11.968;2022-09-27T17:05:23;0.70;;;0.35;;
16828;SDS011;8531;48.078;11.968;2022-09-27T17:07:53;0.93;;;0.52;;
16828;SDS011;8531;48.078;11.968;2022-09-27T17:10:19;1.95;;;0.50;;
16828;SDS011;8531;48.078;11.968;2022-09-27T17:12:46;2.47;;;0.43;;
16828;SDS011;8531;48.078;11.968;2022-09-27T17:15:12;0.80;;;0.40;;
16828;SDS011;8531;48.078;11.968;2022-09-27T17:17:39;0.40;;;0.30;;
16828;SDS011;8531;48.078;11.968;2022-09-27T17:20:04;0.60;;;0.20;;
16828;SDS011;8531;48.078;11.968;2022-09-27T17:22:31;0.77;;;0.28;;
16828;SDS011;8531;48.078;11.968;2022-09-27T17:24:56;1.42;;;0.40;;
16828;SDS011;8531;48.078;11.968;2022-09-27T17:27:22;1.15;;;0.50;;
16828;SDS011;8531;48.078;11.968;2022-09-27T17:29:52;0.73;;;0.32;;
16828;SDS011;8531;48.078;11.968;2022-09-27T17:32:20;1.45;;;0.60;;
16828;SDS011;8531;48.078;11.968;2022-09-27T17:34:49;0.35;;;0.20;;
16828;SDS011;8531;48.078;11.968;2022-09-27T17:37:15;1.33;;;0.40;;
16828;SDS011;8531;48.078;11.968;2022-09-27T17:39:41;0.30;;;0.20;;
16828;SDS011;8531;48.078;11.968;2022-09-27T17:42:06;0.60;;;0.40;;
16828;SDS011;8531;48.078;11.968;2022-09-27T17:44:32;1.33;;;0.70;;
16828;SDS011;8531;48.078;11.968;2022-09-27T17:46:58;0.68;;;0.30;;
16828;SDS011;8531;48.078;11.968;2022-09-27T17:49:42;0.60;;;0.35;;
16828;SDS011;8531;48.078;11.968;2022-09-27T17:52:27;0.15;;;0.15;;
16828;SDS011;8531;48.078;11.968;2022-09-27T17:54:54;0.70;;;0.10;;
16828;SDS011;8531;48.078;11.968;2022-09-27T17:57:22;0.60;;;0.20;;
16828;SDS011;8531;48.078;11.968;2022-09-27T17:59:49;1.30;;;0.22;;
16828;SDS011;8531;48.078;11.968;2022-09-27T18:02:15;0.70;;;0.20;;
16828;SDS011;8531;48.078;11.968;2022-09-27T18:04:40;0.68;;;0.50;;
16828;SDS011;8531;48.078;11.968;2022-09-27T18:07:06;0.80;;;0.40;;
16828;SDS011;8531;48.078;11.968;2022-09-27T18:09:32;1.00;;;0.30;;
16828;SDS011;8531;48.078;11.968;2022-09-27T18:11:58;0.45;;;0.30;;
16828;SDS011;8531;48.078;11.968;2022-09-27T18:14:24;0.90;;;0.80;;
16828;SDS011;8531;48.078;11.968;2022-09-27T18:16:51;1.27;;;0.50;;
16828;SDS011;8531;48.078;11.968;2022-09-27T18:19:18;0.70;;;0.45;;
16828;SDS011;8531;48.078;11.968;2022-09-27T18:21:44;1.10;;;1.00;;
16828;SDS011;8531;48.078;11.968;2022-09-27T18:24:10;1.23;;;0.85;;
16828;SDS011;8531;48.078;11.968;2022-09-27T18:26:37;1.77;;;0.70;;
16828;SDS011;8531;48.078;11.968;2022-09-27T18:29:09;0.77;;;0.70;;
16828;SDS011;8531;48.078;11.968;2022-09-27T18:31:36;3.00;;;2.13;;
16828;SDS011;8531;48.078;11.968;2022-09-27T18:34:03;1.80;;;1.00;;